sensor_id;sensor_type;location;lat;lon;timestamp;P1;durP1;ratioP1;P2;durP2;ratioP2
19940;SDS011;10132;50.864;5.176;2023-04-25T00:00:55;13.00;;;4.77;;
19940;SDS011;10132;50.864;5.176;2023-04-25T00:02:58;16.17;;;4.77;;
19940;SDS011;10132;50.864;5.176;2023-04-25T00:05:06;13.20;;;5.30;;
19940;SDS011;10132;50.864;5.176;2023-04-25T00:07:10;15.87;;;5.87;;
19940;SDS011;10132;50.864;5.176;2023-04-25T00:09:13;13.43;;;5.00;;
19940;SDS011;10132;50.864;5.176;2023-04-25T00:11:24;14.70;;;5.10;;
19940;SDS011;10132;50.864;5.176;2023-04-25T00:13:31;17.20;;;5.00;;
19940;SDS011;10132;50.864;5.176;2023-04-25T00:15:35;12.07;;;4.60;;
19940;SDS011;10132;50.864;5.176;2023-04-25T00:17:39;15.53;;;5.30;;
19940;SDS011;10132;50.864;5.176;2023-04-25T00:19:46;13.77;;;5.27;;
19940;SDS011;10132;50.864;5.176;2023-04-25T00:22:15;15.33;;;5.07;;
19940;SDS011;10132;50.864;5.176;2023-04-25T00:24:27;13.50;;;5.07;;
19940;SDS011;10132;50.864;5.176;2023-04-25T00:26:44;16.17;;;4.87;;
19940;SDS011;10132;50.864;5.176;2023-04-25T00:28:53;13.03;;;5.33;;
19940;SDS011;10132;50.864;5.176;2023-04-25T00:30:57;13.23;;;4.67;;
19940;SDS011;10132;50.864;5.176;2023-04-25T00:33:01;13.90;;;5.40;;
19940;SDS011;10132;50.864;5.176;2023-04-25T00:35:08;19.60;;;5.47;;
19940;SDS011;10132;50.864;5.176;2023-04-25T00:37:16;12.57;;;4.43;;
19940;SDS011;10132;50.864;5.176;2023-04-25T00:39:22;12.77;;;4.57;;
19940;SDS011;10132;50.864;5.176;2023-04-25T00:41:44;13.93;;;5.20;;
19940;SDS011;10132;50.864;5.176;2023-04-25T00:44:01;15.13;;;5.20;;
19940;SDS011;10132;50.864;5.176;2023-04-25T00:46:07;16.17;;;5.17;;
19940;SDS011;10132;50.864;5.176;2023-04-25T00:48:13;15.90;;;4.83;;
19940;SDS011;10132;50.864;5.176;2023-04-25T00:50:16;15.67;;;4.97;;
19940;SDS011;10132;50.864;5.176;2023-04-25T00:52:25;14.80;;;5.30;;
19940;SDS011;10132;50.864;5.176;2023-04-25T00:54:37;15.40;;;4.90;;
19940;SDS011;10132;50.864;5.176;2023-04-25T00:56:44;17.47;;;5.10;;
19940;SDS011;10132;50.864;5.176;2023-04-25T00:59:03;13.27;;;4.90;;
19940;SDS011;10132;50.864;5.176;2023-04-25T01:01:14;18.17;;;4.77;;
19940;SDS011;10132;50.864;5.176;2023-04-25T01:03:18;13.30;;;5.30;;
19940;SDS011;10132;50.864;5.176;2023-04-25T01:05:21;10.90;;;4.20;;
19940;SDS011;10132;50.864;5.176;2023-04-25T01:07:28;14.23;;;4.53;;
19940;SDS011;10132;50.864;5.176;2023-04-25T01:09:34;17.17;;;4.73;;
19940;SDS011;10132;50.864;5.176;2023-04-25T01:11:39;17.23;;;5.03;;
19940;SDS011;10132;50.864;5.176;2023-04-25T01:13:42;15.00;;;5.20;;
19940;SDS011;10132;50.864;5.176;2023-04-25T01:15:49;12.97;;;5.13;;
19940;SDS011;10132;50.864;5.176;2023-04-25T01:17:56;15.57;;;4.73;;
19940;SDS011;10132;50.864;5.176;2023-04-25T01:20:08;14.47;;;5.50;;
19940;SDS011;10132;50.864;5.176;2023-04-25T01:22:16;16.60;;;5.30;;
19940;SDS011;10132;50.864;5.176;2023-04-25T01:24:27;17.40;;;5.13;;
19940;SDS011;10132;50.864;5.176;2023-04-25T01:26:31;14.80;;;5.10;;
19940;SDS011;10132;50.864;5.176;2023-04-25T01:28:35;15.90;;;4.93;;
19940;SDS011;10132;50.864;5.176;2023-04-25T01:30:46;15.80;;;5.57;;
19940;SDS011;10132;50.864;5.176;2023-04-25T01:32:55;18.27;;;5.20;;
19940;SDS011;10132;50.864;5.176;2023-04-25T01:35:06;14.90;;;4.87;;
19940;SDS011;10132;50.864;5.176;2023-04-25T01:37:20;14.07;;;5.33;;
19940;SDS011;10132;50.864;5.176;2023-04-25T01:39:26;14.60;;;4.97;;
19940;SDS011;10132;50.864;5.176;2023-04-25T01:41:37;23.33;;;5.27;;
19940;SDS011;10132;50.864;5.176;2023-04-25T01:43:40;12.43;;;4.70;;
19940;SDS011;10132;50.864;5.176;2023-04-25T01:45:49;14.60;;;5.00;;
19940;SDS011;10132;50.864;5.176;2023-04-25T01:47:52;14.87;;;5.50;;
19940;SDS011;10132;50.864;5.176;2023-04-25T01:50:00;17.83;;;5.77;;
19940;SDS011;10132;50.864;5.176;2023-04-25T01:52:10;20.00;;;5.50;;
19940;SDS011;10132;50.864;5.176;2023-04-25T01:54:17;18.07;;;5.07;;
19940;SDS011;10132;50.864;5.176;2023-04-25T01:56:22;17.27;;;5.63;;
19940;SDS011;10132;50.864;5.176;2023-04-25T01:58:26;17.40;;;5.53;;
19940;SDS011;10132;50.864;5.176;2023-04-25T02:00:34;16.00;;;5.10;;
19940;SDS011;10132;50.864;5.176;2023-04-25T02:02:39;17.57;;;5.40;;
19940;SDS011;10132;50.864;5.176;2023-04-25T02:04:46;16.97;;;5.30;;
19940;SDS011;10132;50.864;5.176;2023-04-25T02:06:48;13.00;;;5.23;;
19940;SDS011;10132;50.864;5.176;2023-04-25T02:08:51;17.53;;;5.87;;
19940;SDS011;10132;50.864;5.176;2023-04-25T02:10:56;17.30;;;5.53;;
19940;SDS011;10132;50.864;5.176;2023-04-25T02:12:59;14.10;;;5.40;;
19940;SDS011;10132;50.864;5.176;2023-04-25T02:15:06;13.83;;;5.43;;
19940;SDS011;10132;50.864;5.176;2023-04-25T02:17:09;12.17;;;4.90;;
19940;SDS011;10132;50.864;5.176;2023-04-25T02:19:13;16.50;;;5.40;;
19940;SDS011;10132;50.864;5.176;2023-04-25T02:21:19;17.37;;;5.73;;
19940;SDS011;10132;50.864;5.176;2023-04-25T02:23:22;18.63;;;5.80;;
19940;SDS011;10132;50.864;5.176;2023-04-25T02:25:28;12.77;;;5.50;;
19940;SDS011;10132;50.864;5.176;2023-04-25T02:27:34;13.37;;;5.23;;
19940;SDS011;10132;50.864;5.176;2023-04-25T02:29:37;16.97;;;5.73;;
19940;SDS011;10132;50.864;5.176;2023-04-25T02:31:39;17.90;;;5.70;;
19940;SDS011;10132;50.864;5.176;2023-04-25T02:33:42;16.83;;;6.10;;
19940;SDS011;10132;50.864;5.176;2023-04-25T02:35:47;17.37;;;5.80;;
19940;SDS011;10132;50.864;5.176;2023-04-25T02:37:50;16.97;;;5.70;;
19940;SDS011;10132;50.864;5.176;2023-04-25T02:40:01;17.57;;;6.20;;
19940;SDS011;10132;50.864;5.176;2023-04-25T02:42:04;17.07;;;5.60;;
19940;SDS011;10132;50.864;5.176;2023-04-25T02:44:10;16.47;;;6.03;;
19940;SDS011;10132;50.864;5.176;2023-04-25T02:46:12;22.87;;;6.47;;
19940;SDS011;10132;50.864;5.176;2023-04-25T02:48:14;17.53;;;5.93;;
19940;SDS011;10132;50.864;5.176;2023-04-25T02:50:16;18.53;;;6.77;;
19940;SDS011;10132;50.864;5.176;2023-04-25T02:52:19;17.53;;;6.47;;
19940;SDS011;10132;50.864;5.176;2023-04-25T02:54:21;19.87;;;6.37;;
19940;SDS011;10132;50.864;5.176;2023-04-25T02:56:24;18.43;;;6.23;;
19940;SDS011;10132;50.864;5.176;2023-04-25T02:58:28;22.40;;;6.50;;
19940;SDS011;10132;50.864;5.176;2023-04-25T03:00:31;21.00;;;6.47;;
19940;SDS011;10132;50.864;5.176;2023-04-25T03:02:34;17.13;;;5.73;;
19940;SDS011;10132;50.864;5.176;2023-04-25T03:04:36;15.10;;;6.00;;
19940;SDS011;10132;50.864;5.176;2023-04-25T03:06:39;18.27;;;6.13;;
19940;SDS011;10132;50.864;5.176;2023-04-25T03:08:42;18.40;;;6.53;;
19940;SDS011;10132;50.864;5.176;2023-04-25T03:10:46;22.13;;;7.20;;
19940;SDS011;10132;50.864;5.176;2023-04-25T03:12:58;20.50;;;6.90;;
19940;SDS011;10132;50.864;5.176;2023-04-25T03:15:02;16.10;;;6.00;;
19940;SDS011;10132;50.864;5.176;2023-04-25T03:17:07;20.67;;;6.47;;
19940;SDS011;10132;50.864;5.176;2023-04-25T03:19:10;20.57;;;6.13;;
19940;SDS011;10132;50.864;5.176;2023-04-25T03:21:12;25.67;;;6.77;;
19940;SDS011;10132;50.864;5.176;2023-04-25T03:23:15;20.23;;;6.20;;
19940;SDS011;10132;50.864;5.176;2023-04-25T03:25:18;20.93;;;6.80;;
19940;SDS011;10132;50.864;5.176;2023-04-25T03:27:22;15.90;;;6.20;;
19940;SDS011;10132;50.864;5.176;2023-04-25T03:29:24;19.47;;;7.20;;
19940;SDS011;10132;50.864;5.176;2023-04-25T03:31:28;16.13;;;6.17;;
19940;SDS011;10132;50.864;5.176;2023-04-25T03:33:32;20.93;;;7.30;;
19940;SDS011;10132;50.864;5.176;2023-04-25T03:35:34;17.77;;;6.40;;
19940;SDS011;10132;50.864;5.176;2023-04-25T03:37:38;20.57;;;6.77;;
19940;SDS011;10132;50.864;5.176;2023-04-25T03:39:45;16.13;;;6.23;;
19940;SDS011;10132;50.864;5.176;2023-04-25T03:41:48;22.23;;;7.03;;
19940;SDS011;10132;50.864;5.176;2023-04-25T03:43:50;22.27;;;7.80;;
19940;SDS011;10132;50.864;5.176;2023-04-25T03:45:53;20.03;;;6.63;;
19940;SDS011;10132;50.864;5.176;2023-04-25T03:47:55;20.00;;;6.60;;
19940;SDS011;10132;50.864;5.176;2023-04-25T03:50:02;17.57;;;6.57;;
19940;SDS011;10132;50.864;5.176;2023-04-25T03:52:05;17.37;;;6.13;;
19940;SDS011;10132;50.864;5.176;2023-04-25T03:54:07;17.90;;;6.47;;
19940;SDS011;10132;50.864;5.176;2023-04-25T03:56:16;14.07;;;6.67;;
19940;SDS011;10132;50.864;5.176;2023-04-25T03:58:20;21.70;;;6.87;;
19940;SDS011;10132;50.864;5.176;2023-04-25T04:00:23;17.23;;;6.67;;
19940;SDS011;10132;50.864;5.176;2023-04-25T04:02:25;21.47;;;6.87;;
19940;SDS011;10132;50.864;5.176;2023-04-25T04:04:29;20.50;;;7.17;;
19940;SDS011;10132;50.864;5.176;2023-04-25T04:06:33;16.47;;;6.50;;
19940;SDS011;10132;50.864;5.176;2023-04-25T04:08:35;21.67;;;6.73;;
19940;SDS011;10132;50.864;5.176;2023-04-25T04:10:37;19.97;;;6.67;;
19940;SDS011;10132;50.864;5.176;2023-04-25T04:12:40;20.27;;;6.73;;
19940;SDS011;10132;50.864;5.176;2023-04-25T04:14:46;19.80;;;6.83;;
19940;SDS011;10132;50.864;5.176;2023-04-25T04:16:48;17.27;;;6.60;;
19940;SDS011;10132;50.864;5.176;2023-04-25T04:18:52;19.73;;;6.47;;
19940;SDS011;10132;50.864;5.176;2023-04-25T04:20:53;14.73;;;6.07;;
19940;SDS011;10132;50.864;5.176;2023-04-25T04:22:59;13.27;;;5.27;;
19940;SDS011;10132;50.864;5.176;2023-04-25T04:25:02;14.80;;;5.60;;
19940;SDS011;10132;50.864;5.176;2023-04-25T04:27:05;13.13;;;5.00;;
19940;SDS011;10132;50.864;5.176;2023-04-25T04:29:09;13.17;;;5.53;;
19940;SDS011;10132;50.864;5.176;2023-04-25T04:31:20;14.33;;;5.50;;
19940;SDS011;10132;50.864;5.176;2023-04-25T04:33:23;11.63;;;4.97;;
19940;SDS011;10132;50.864;5.176;2023-04-25T04:35:26;12.83;;;4.90;;
19940;SDS011;10132;50.864;5.176;2023-04-25T04:37:30;15.87;;;4.83;;
19940;SDS011;10132;50.864;5.176;2023-04-25T04:39:35;12.10;;;4.93;;
19940;SDS011;10132;50.864;5.176;2023-04-25T04:41:37;14.77;;;5.53;;
19940;SDS011;10132;50.864;5.176;2023-04-25T04:43:39;12.77;;;4.50;;
19940;SDS011;10132;50.864;5.176;2023-04-25T04:45:41;11.10;;;4.93;;
19940;SDS011;10132;50.864;5.176;2023-04-25T04:47:44;11.70;;;4.90;;
19940;SDS011;10132;50.864;5.176;2023-04-25T04:49:46;16.80;;;4.93;;
19940;SDS011;10132;50.864;5.176;2023-04-25T04:51:51;11.23;;;4.53;;
19940;SDS011;10132;50.864;5.176;2023-04-25T04:53:54;10.87;;;5.07;;
19940;SDS011;10132;50.864;5.176;2023-04-25T04:56:01;17.30;;;5.63;;
19940;SDS011;10132;50.864;5.176;2023-04-25T04:58:03;12.67;;;5.00;;
19940;SDS011;10132;50.864;5.176;2023-04-25T05:00:06;11.27;;;4.47;;
19940;SDS011;10132;50.864;5.176;2023-04-25T05:02:11;14.63;;;5.00;;
19940;SDS011;10132;50.864;5.176;2023-04-25T05:04:13;13.40;;;4.80;;
19940;SDS011;10132;50.864;5.176;2023-04-25T05:06:15;13.70;;;5.10;;
19940;SDS011;10132;50.864;5.176;2023-04-25T05:08:17;10.13;;;4.67;;
19940;SDS011;10132;50.864;5.176;2023-04-25T05:10:19;14.37;;;4.87;;
19940;SDS011;10132;50.864;5.176;2023-04-25T05:12:23;12.77;;;5.17;;
19940;SDS011;10132;50.864;5.176;2023-04-25T05:14:25;11.77;;;5.00;;
19940;SDS011;10132;50.864;5.176;2023-04-25T05:16:30;9.90;;;5.50;;
19940;SDS011;10132;50.864;5.176;2023-04-25T05:18:32;13.50;;;4.73;;
19940;SDS011;10132;50.864;5.176;2023-04-25T05:20:35;11.23;;;4.77;;
19940;SDS011;10132;50.864;5.176;2023-04-25T05:22:37;12.77;;;4.67;;
19940;SDS011;10132;50.864;5.176;2023-04-25T05:24:39;10.23;;;5.10;;
19940;SDS011;10132;50.864;5.176;2023-04-25T05:26:42;12.13;;;4.93;;
19940;SDS011;10132;50.864;5.176;2023-04-25T05:28:45;12.47;;;5.37;;
19940;SDS011;10132;50.864;5.176;2023-04-25T05:30:48;16.40;;;5.60;;
19940;SDS011;10132;50.864;5.176;2023-04-25T05:32:51;13.20;;;6.07;;
19940;SDS011;10132;50.864;5.176;2023-04-25T05:34:53;16.37;;;5.50;;
19940;SDS011;10132;50.864;5.176;2023-04-25T05:36:55;12.80;;;5.47;;
19940;SDS011;10132;50.864;5.176;2023-04-25T05:38:57;13.23;;;5.47;;
19940;SDS011;10132;50.864;5.176;2023-04-25T05:40:59;15.63;;;5.47;;
19940;SDS011;10132;50.864;5.176;2023-04-25T05:43:02;14.00;;;5.67;;
19940;SDS011;10132;50.864;5.176;2023-04-25T05:45:06;15.73;;;5.73;;
19940;SDS011;10132;50.864;5.176;2023-04-25T05:47:09;13.73;;;5.47;;
19940;SDS011;10132;50.864;5.176;2023-04-25T05:49:11;14.63;;;5.40;;
19940;SDS011;10132;50.864;5.176;2023-04-25T05:51:13;11.07;;;5.70;;
19940;SDS011;10132;50.864;5.176;2023-04-25T05:53:16;16.93;;;6.57;;
19940;SDS011;10132;50.864;5.176;2023-04-25T05:55:18;20.63;;;6.60;;
19940;SDS011;10132;50.864;5.176;2023-04-25T05:57:21;14.53;;;5.73;;
19940;SDS011;10132;50.864;5.176;2023-04-25T05:59:24;14.10;;;5.50;;
19940;SDS011;10132;50.864;5.176;2023-04-25T06:01:27;17.47;;;6.07;;
19940;SDS011;10132;50.864;5.176;2023-04-25T06:03:30;13.67;;;5.57;;
19940;SDS011;10132;50.864;5.176;2023-04-25T06:05:32;18.40;;;6.33;;
19940;SDS011;10132;50.864;5.176;2023-04-25T06:07:34;16.97;;;6.70;;
19940;SDS011;10132;50.864;5.176;2023-04-25T06:09:36;20.27;;;6.73;;
19940;SDS011;10132;50.864;5.176;2023-04-25T06:11:39;16.10;;;7.93;;
19940;SDS011;10132;50.864;5.176;2023-04-25T06:13:41;15.40;;;7.13;;
19940;SDS011;10132;50.864;5.176;2023-04-25T06:15:43;15.00;;;6.90;;
19940;SDS011;10132;50.864;5.176;2023-04-25T06:17:46;14.77;;;7.23;;
19940;SDS011;10132;50.864;5.176;2023-04-25T06:19:48;15.57;;;7.10;;
19940;SDS011;10132;50.864;5.176;2023-04-25T06:21:50;20.37;;;7.80;;
19940;SDS011;10132;50.864;5.176;2023-04-25T06:23:53;20.83;;;8.57;;
19940;SDS011;10132;50.864;5.176;2023-04-25T06:25:55;20.30;;;7.80;;
19940;SDS011;10132;50.864;5.176;2023-04-25T06:27:57;17.13;;;7.80;;
19940;SDS011;10132;50.864;5.176;2023-04-25T06:29:59;16.40;;;8.03;;
19940;SDS011;10132;50.864;5.176;2023-04-25T06:32:02;22.13;;;8.60;;
19940;SDS011;10132;50.864;5.176;2023-04-25T06:34:06;20.70;;;8.37;;
19940;SDS011;10132;50.864;5.176;2023-04-25T06:36:08;15.33;;;7.90;;
19940;SDS011;10132;50.864;5.176;2023-04-25T06:38:11;17.77;;;7.83;;
19940;SDS011;10132;50.864;5.176;2023-04-25T06:40:13;21.40;;;8.10;;
19940;SDS011;10132;50.864;5.176;2023-04-25T06:42:15;15.40;;;7.50;;
19940;SDS011;10132;50.864;5.176;2023-04-25T06:44:17;19.23;;;8.37;;
19940;SDS011;10132;50.864;5.176;2023-04-25T06:46:19;19.17;;;7.90;;
19940;SDS011;10132;50.864;5.176;2023-04-25T06:48:21;16.27;;;7.20;;
19940;SDS011;10132;50.864;5.176;2023-04-25T06:50:25;17.33;;;7.60;;
19940;SDS011;10132;50.864;5.176;2023-04-25T06:52:27;15.50;;;7.50;;
19940;SDS011;10132;50.864;5.176;2023-04-25T06:54:29;19.07;;;7.57;;
19940;SDS011;10132;50.864;5.176;2023-04-25T06:56:31;22.23;;;7.53;;
19940;SDS011;10132;50.864;5.176;2023-04-25T06:58:33;20.50;;;8.40;;
19940;SDS011;10132;50.864;5.176;2023-04-25T07:00:35;19.67;;;8.80;;
19940;SDS011;10132;50.864;5.176;2023-04-25T07:02:38;18.10;;;8.03;;
19940;SDS011;10132;50.864;5.176;2023-04-25T07:04:42;21.03;;;10.53;;
19940;SDS011;10132;50.864;5.176;2023-04-25T07:06:49;18.10;;;7.73;;
19940;SDS011;10132;50.864;5.176;2023-04-25T07:08:51;16.50;;;6.90;;
19940;SDS011;10132;50.864;5.176;2023-04-25T07:10:53;15.60;;;6.90;;
19940;SDS011;10132;50.864;5.176;2023-04-25T07:12:55;18.87;;;7.50;;
19940;SDS011;10132;50.864;5.176;2023-04-25T07:14:58;19.90;;;6.90;;
19940;SDS011;10132;50.864;5.176;2023-04-25T07:17:05;22.53;;;7.63;;
19940;SDS011;10132;50.864;5.176;2023-04-25T07:19:07;20.57;;;7.57;;
19940;SDS011;10132;50.864;5.176;2023-04-25T07:21:10;19.90;;;7.70;;
19940;SDS011;10132;50.864;5.176;2023-04-25T07:23:13;17.90;;;7.23;;
19940;SDS011;10132;50.864;5.176;2023-04-25T07:25:16;20.17;;;7.20;;
19940;SDS011;10132;50.864;5.176;2023-04-25T07:27:18;17.57;;;7.20;;
19940;SDS011;10132;50.864;5.176;2023-04-25T07:29:20;17.17;;;6.90;;
19940;SDS011;10132;50.864;5.176;2023-04-25T07:31:22;20.77;;;7.30;;
19940;SDS011;10132;50.864;5.176;2023-04-25T07:33:24;20.07;;;7.80;;
19940;SDS011;10132;50.864;5.176;2023-04-25T07:35:27;15.80;;;6.70;;
19940;SDS011;10132;50.864;5.176;2023-04-25T07:37:29;22.97;;;7.30;;
19940;SDS011;10132;50.864;5.176;2023-04-25T07:39:33;19.90;;;7.40;;
19940;SDS011;10132;50.864;5.176;2023-04-25T07:41:35;20.73;;;7.80;;
19940;SDS011;10132;50.864;5.176;2023-04-25T07:43:37;17.90;;;7.13;;
19940;SDS011;10132;50.864;5.176;2023-04-25T07:45:39;18.40;;;6.43;;
19940;SDS011;10132;50.864;5.176;2023-04-25T07:47:42;14.63;;;6.00;;
19940;SDS011;10132;50.864;5.176;2023-04-25T07:49:45;15.77;;;5.10;;
19940;SDS011;10132;50.864;5.176;2023-04-25T07:51:48;15.53;;;5.00;;
19940;SDS011;10132;50.864;5.176;2023-04-25T07:53:50;17.47;;;5.70;;
19940;SDS011;10132;50.864;5.176;2023-04-25T07:55:54;16.97;;;5.33;;
19940;SDS011;10132;50.864;5.176;2023-04-25T07:57:56;21.07;;;5.27;;
19940;SDS011;10132;50.864;5.176;2023-04-25T07:59:59;14.47;;;4.67;;
19940;SDS011;10132;50.864;5.176;2023-04-25T08:02:02;14.33;;;4.17;;
19940;SDS011;10132;50.864;5.176;2023-04-25T08:04:04;16.50;;;4.90;;
19940;SDS011;10132;50.864;5.176;2023-04-25T08:06:06;14.23;;;4.73;;
19940;SDS011;10132;50.864;5.176;2023-04-25T08:08:09;13.77;;;4.33;;
19940;SDS011;10132;50.864;5.176;2023-04-25T08:10:11;11.53;;;4.13;;
19940;SDS011;10132;50.864;5.176;2023-04-25T08:12:17;15.17;;;4.27;;
19940;SDS011;10132;50.864;5.176;2023-04-25T08:14:19;16.97;;;3.73;;
19940;SDS011;10132;50.864;5.176;2023-04-25T08:16:21;11.50;;;3.90;;
19940;SDS011;10132;50.864;5.176;2023-04-25T08:18:24;12.63;;;3.53;;
19940;SDS011;10132;50.864;5.176;2023-04-25T08:20:26;12.27;;;4.03;;
19940;SDS011;10132;50.864;5.176;2023-04-25T08:22:29;12.40;;;3.70;;
19940;SDS011;10132;50.864;5.176;2023-04-25T08:24:32;10.20;;;3.83;;
19940;SDS011;10132;50.864;5.176;2023-04-25T08:26:34;13.03;;;4.27;;
19940;SDS011;10132;50.864;5.176;2023-04-25T08:28:38;14.47;;;3.90;;
19940;SDS011;10132;50.864;5.176;2023-04-25T08:30:41;9.47;;;3.60;;
19940;SDS011;10132;50.864;5.176;2023-04-25T08:32:43;10.67;;;3.43;;
19940;SDS011;10132;50.864;5.176;2023-04-25T08:34:45;8.73;;;3.10;;
19940;SDS011;10132;50.864;5.176;2023-04-25T08:36:47;9.17;;;3.10;;
19940;SDS011;10132;50.864;5.176;2023-04-25T08:38:50;14.47;;;3.40;;
19940;SDS011;10132;50.864;5.176;2023-04-25T08:40:52;8.40;;;3.00;;
19940;SDS011;10132;50.864;5.176;2023-04-25T08:42:56;11.57;;;3.20;;
19940;SDS011;10132;50.864;5.176;2023-04-25T08:45:00;9.83;;;2.63;;
19940;SDS011;10132;50.864;5.176;2023-04-25T08:47:03;9.47;;;3.20;;
19940;SDS011;10132;50.864;5.176;2023-04-25T08:49:07;16.23;;;4.17;;
19940;SDS011;10132;50.864;5.176;2023-04-25T08:51:10;13.67;;;3.77;;
19940;SDS011;10132;50.864;5.176;2023-04-25T08:53:25;8.53;;;3.17;;
19940;SDS011;10132;50.864;5.176;2023-04-25T08:55:27;13.27;;;3.40;;
19940;SDS011;10132;50.864;5.176;2023-04-25T08:57:30;10.10;;;2.50;;
19940;SDS011;10132;50.864;5.176;2023-04-25T08:59:35;7.40;;;2.70;;
19940;SDS011;10132;50.864;5.176;2023-04-25T09:01:44;6.80;;;3.07;;
19940;SDS011;10132;50.864;5.176;2023-04-25T09:03:46;9.63;;;2.60;;
19940;SDS011;10132;50.864;5.176;2023-04-25T09:05:49;6.13;;;2.53;;
19940;SDS011;10132;50.864;5.176;2023-04-25T09:07:52;7.20;;;2.40;;
19940;SDS011;10132;50.864;5.176;2023-04-25T09:09:56;14.07;;;2.70;;
19940;SDS011;10132;50.864;5.176;2023-04-25T09:12:00;6.80;;;3.30;;
19940;SDS011;10132;50.864;5.176;2023-04-25T09:14:12;9.73;;;3.13;;
19940;SDS011;10132;50.864;5.176;2023-04-25T09:16:15;11.17;;;3.10;;
19940;SDS011;10132;50.864;5.176;2023-04-25T09:18:23;11.60;;;3.00;;
19940;SDS011;10132;50.864;5.176;2023-04-25T09:20:26;13.50;;;3.60;;
19940;SDS011;10132;50.864;5.176;2023-04-25T09:22:30;12.47;;;3.30;;
19940;SDS011;10132;50.864;5.176;2023-04-25T09:24:36;9.90;;;3.03;;
19940;SDS011;10132;50.864;5.176;2023-04-25T09:26:40;8.87;;;2.80;;
19940;SDS011;10132;50.864;5.176;2023-04-25T09:28:42;5.63;;;2.30;;
19940;SDS011;10132;50.864;5.176;2023-04-25T09:30:44;6.57;;;2.17;;
19940;SDS011;10132;50.864;5.176;2023-04-25T09:32:49;7.80;;;2.30;;
19940;SDS011;10132;50.864;5.176;2023-04-25T09:34:53;8.83;;;2.70;;
19940;SDS011;10132;50.864;5.176;2023-04-25T09:36:56;6.73;;;2.50;;
19940;SDS011;10132;50.864;5.176;2023-04-25T09:39:03;7.33;;;2.83;;
19940;SDS011;10132;50.864;5.176;2023-04-25T09:41:21;7.90;;;2.73;;
19940;SDS011;10132;50.864;5.176;2023-04-25T09:43:24;7.17;;;2.90;;
19940;SDS011;10132;50.864;5.176;2023-04-25T09:45:29;12.03;;;3.40;;
19940;SDS011;10132;50.864;5.176;2023-04-25T09:47:31;9.90;;;2.70;;
19940;SDS011;10132;50.864;5.176;2023-04-25T09:49:39;12.60;;;3.40;;
19940;SDS011;10132;50.864;5.176;2023-04-25T09:51:56;7.93;;;3.20;;
19940;SDS011;10132;50.864;5.176;2023-04-25T09:53:58;11.30;;;2.67;;
19940;SDS011;10132;50.864;5.176;2023-04-25T09:56:03;11.20;;;2.70;;
19940;SDS011;10132;50.864;5.176;2023-04-25T09:58:07;9.27;;;2.80;;
19940;SDS011;10132;50.864;5.176;2023-04-25T10:00:12;9.07;;;2.50;;
19940;SDS011;10132;50.864;5.176;2023-04-25T10:02:16;8.77;;;2.40;;
19940;SDS011;10132;50.864;5.176;2023-04-25T10:04:24;7.03;;;2.07;;
19940;SDS011;10132;50.864;5.176;2023-04-25T10:06:29;7.87;;;2.50;;
19940;SDS011;10132;50.864;5.176;2023-04-25T10:08:36;8.70;;;2.60;;
19940;SDS011;10132;50.864;5.176;2023-04-25T10:10:39;9.37;;;2.63;;
19940;SDS011;10132;50.864;5.176;2023-04-25T10:12:42;11.37;;;2.30;;
19940;SDS011;10132;50.864;5.176;2023-04-25T10:14:45;10.20;;;2.83;;
19940;SDS011;10132;50.864;5.176;2023-04-25T10:16:48;10.83;;;2.83;;
19940;SDS011;10132;50.864;5.176;2023-04-25T10:18:53;7.00;;;3.03;;
19940;SDS011;10132;50.864;5.176;2023-04-25T10:20:57;14.27;;;3.27;;
19940;SDS011;10132;50.864;5.176;2023-04-25T10:23:03;8.57;;;2.53;;
19940;SDS011;10132;50.864;5.176;2023-04-25T10:25:16;9.33;;;3.23;;
19940;SDS011;10132;50.864;5.176;2023-04-25T10:27:19;10.60;;;2.93;;
19940;SDS011;10132;50.864;5.176;2023-04-25T10:29:22;8.93;;;2.90;;
19940;SDS011;10132;50.864;5.176;2023-04-25T10:31:24;9.03;;;2.67;;
19940;SDS011;10132;50.864;5.176;2023-04-25T10:33:34;8.83;;;2.70;;
19940;SDS011;10132;50.864;5.176;2023-04-25T10:35:37;6.70;;;2.90;;
19940;SDS011;10132;50.864;5.176;2023-04-25T10:40:07;12.00;;;3.20;;
19940;SDS011;10132;50.864;5.176;2023-04-25T10:42:12;9.93;;;3.00;;
19940;SDS011;10132;50.864;5.176;2023-04-25T10:44:14;10.90;;;3.80;;
19940;SDS011;10132;50.864;5.176;2023-04-25T10:46:17;8.40;;;2.90;;
19940;SDS011;10132;50.864;5.176;2023-04-25T10:48:25;10.23;;;3.50;;
19940;SDS011;10132;50.864;5.176;2023-04-25T10:50:36;6.77;;;2.97;;
19940;SDS011;10132;50.864;5.176;2023-04-25T10:52:39;10.97;;;3.10;;
19940;SDS011;10132;50.864;5.176;2023-04-25T10:54:42;8.07;;;2.77;;
19940;SDS011;10132;50.864;5.176;2023-04-25T10:56:48;9.53;;;3.70;;
19940;SDS011;10132;50.864;5.176;2023-04-25T10:58:52;9.40;;;3.20;;
19940;SDS011;10132;50.864;5.176;2023-04-25T11:01:06;8.83;;;2.80;;
19940;SDS011;10132;50.864;5.176;2023-04-25T11:03:08;8.60;;;3.30;;
19940;SDS011;10132;50.864;5.176;2023-04-25T11:05:10;7.13;;;2.43;;
19940;SDS011;10132;50.864;5.176;2023-04-25T11:07:19;8.77;;;2.83;;
19940;SDS011;10132;50.864;5.176;2023-04-25T11:09:27;5.70;;;2.40;;
19940;SDS011;10132;50.864;5.176;2023-04-25T11:11:30;6.97;;;2.33;;
19940;SDS011;10132;50.864;5.176;2023-04-25T11:13:32;6.53;;;2.33;;
19940;SDS011;10132;50.864;5.176;2023-04-25T11:15:36;5.90;;;1.73;;
19940;SDS011;10132;50.864;5.176;2023-04-25T11:17:40;6.10;;;1.90;;
19940;SDS011;10132;50.864;5.176;2023-04-25T11:19:43;5.20;;;1.60;;
19940;SDS011;10132;50.864;5.176;2023-04-25T11:21:49;4.67;;;1.80;;
19940;SDS011;10132;50.864;5.176;2023-04-25T11:23:53;6.80;;;1.83;;
19940;SDS011;10132;50.864;5.176;2023-04-25T11:25:57;9.63;;;2.10;;
19940;SDS011;10132;50.864;5.176;2023-04-25T11:28:01;3.83;;;1.80;;
19940;SDS011;10132;50.864;5.176;2023-04-25T11:30:13;5.00;;;1.80;;
19940;SDS011;10132;50.864;5.176;2023-04-25T11:32:18;5.17;;;1.60;;
19940;SDS011;10132;50.864;5.176;2023-04-25T11:34:21;4.90;;;1.60;;
19940;SDS011;10132;50.864;5.176;2023-04-25T11:36:23;5.33;;;1.33;;
19940;SDS011;10132;50.864;5.176;2023-04-25T11:38:26;5.60;;;1.80;;
19940;SDS011;10132;50.864;5.176;2023-04-25T11:40:28;5.63;;;1.70;;
19940;SDS011;10132;50.864;5.176;2023-04-25T11:42:32;4.87;;;1.80;;
19940;SDS011;10132;50.864;5.176;2023-04-25T11:44:34;6.80;;;1.80;;
19940;SDS011;10132;50.864;5.176;2023-04-25T11:46:38;3.40;;;1.43;;
19940;SDS011;10132;50.864;5.176;2023-04-25T11:48:43;6.97;;;1.80;;
19940;SDS011;10132;50.864;5.176;2023-04-25T11:50:45;6.13;;;1.63;;
19940;SDS011;10132;50.864;5.176;2023-04-25T11:52:49;3.23;;;1.20;;
19940;SDS011;10132;50.864;5.176;2023-04-25T11:54:52;5.30;;;1.50;;
19940;SDS011;10132;50.864;5.176;2023-04-25T11:56:55;6.63;;;1.60;;
19940;SDS011;10132;50.864;5.176;2023-04-25T11:58:58;4.27;;;1.30;;
19940;SDS011;10132;50.864;5.176;2023-04-25T12:01:00;5.60;;;1.47;;
19940;SDS011;10132;50.864;5.176;2023-04-25T12:03:03;3.67;;;1.20;;
19940;SDS011;10132;50.864;5.176;2023-04-25T12:05:08;2.63;;;1.37;;
19940;SDS011;10132;50.864;5.176;2023-04-25T12:07:10;4.90;;;1.53;;
19940;SDS011;10132;50.864;5.176;2023-04-25T12:09:14;5.50;;;1.80;;
19940;SDS011;10132;50.864;5.176;2023-04-25T12:11:21;4.53;;;1.57;;
19940;SDS011;10132;50.864;5.176;2023-04-25T12:13:24;3.33;;;1.37;;
19940;SDS011;10132;50.864;5.176;2023-04-25T12:15:28;6.57;;;1.67;;
19940;SDS011;10132;50.864;5.176;2023-04-25T12:17:30;7.43;;;1.77;;
19940;SDS011;10132;50.864;5.176;2023-04-25T12:19:32;5.67;;;1.60;;
19940;SDS011;10132;50.864;5.176;2023-04-25T12:21:36;4.33;;;1.50;;
19940;SDS011;10132;50.864;5.176;2023-04-25T12:23:39;7.60;;;1.67;;